sensor_id;sensor_type;location;lat;lon;timestamp;temperature;humidity
21676;DHT22;10999;51.332;9.458;2023-07-08T00:01:18;17.70;52.90
21676;DHT22;10999;51.332;9.458;2023-07-08T00:03:46;17.60;53.00
21676;DHT22;10999;51.332;9.458;2023-07-08T00:06:17;17.60;53.80
21676;DHT22;10999;51.332;9.458;2023-07-08T00:08:44;17.60;54.00
21676;DHT22;10999;51.332;9.458;2023-07-08T00:11:12;17.60;53.50
21676;DHT22;10999;51.332;9.458;2023-07-08T00:13:39;17.60;53.50
21676;DHT22;10999;51.332;9.458;2023-07-08T00:16:16;17.50;53.60
21676;DHT22;10999;51.332;9.458;2023-07-08T00:18:45;17.50;53.60
21676;DHT22;10999;51.332;9.458;2023-07-08T00:21:14;17.50;54.10
21676;DHT22;10999;51.332;9.458;2023-07-08T00:23:50;17.40;54.70
21676;DHT22;10999;51.332;9.458;2023-07-08T00:26:28;17.40;54.30
21676;DHT22;10999;51.332;9.458;2023-07-08T00:28:56;17.40;53.90
21676;DHT22;10999;51.332;9.458;2023-07-08T00:31:24;17.30;53.70
21676;DHT22;10999;51.332;9.458;2023-07-08T00:33:53;17.30;53.40
21676;DHT22;10999;51.332;9.458;2023-07-08T00:36:26;17.30;53.50
21676;DHT22;10999;51.332;9.458;2023-07-08T00:38:53;17.30;53.80
21676;DHT22;10999;51.332;9.458;2023-07-08T00:41:33;17.30;54.00
21676;DHT22;10999;51.332;9.458;2023-07-08T00:44:02;17.20;54.20
21676;DHT22;10999;51.332;9.458;2023-07-08T00:51:37;17.20;54.50
21676;DHT22;10999;51.332;9.458;2023-07-08T00:54:09;17.10;53.80
21676;DHT22;10999;51.332;9.458;2023-07-08T00:56:48;17.20;53.20
21676;DHT22;10999;51.332;9.458;2023-07-08T00:59:35;17.20;53.90
21676;DHT22;10999;51.332;9.458;2023-07-08T01:02:05;17.10;53.50
21676;DHT22;10999;51.332;9.458;2023-07-08T01:04:56;17.10;54.20
21676;DHT22;10999;51.332;9.458;2023-07-08T01:07:25;17.10;54.00
21676;DHT22;10999;51.332;9.458;2023-07-08T01:09:59;17.10;53.80
21676;DHT22;10999;51.332;9.458;2023-07-08T01:12:31;17.10;53.70
21676;DHT22;10999;51.332;9.458;2023-07-08T01:15:00;17.00;54.10
21676;DHT22;10999;51.332;9.458;2023-07-08T01:17:29;17.00;53.60
21676;DHT22;10999;51.332;9.458;2023-07-08T01:20:00;17.00;54.70
21676;DHT22;10999;51.332;9.458;2023-07-08T01:22:31;17.00;55.00
21676;DHT22;10999;51.332;9.458;2023-07-08T01:25:00;17.00;54.60
21676;DHT22;10999;51.332;9.458;2023-07-08T01:27:32;16.90;54.20
21676;DHT22;10999;51.332;9.458;2023-07-08T01:30:01;16.90;55.40
21676;DHT22;10999;51.332;9.458;2023-07-08T01:32:29;16.80;55.20
21676;DHT22;10999;51.332;9.458;2023-07-08T01:35:00;16.80;55.90
21676;DHT22;10999;51.332;9.458;2023-07-08T01:37:35;16.70;56.10
21676;DHT22;10999;51.332;9.458;2023-07-08T01:40:34;16.60;56.40
21676;DHT22;10999;51.332;9.458;2023-07-08T01:43:02;16.60;56.30
21676;DHT22;10999;51.332;9.458;2023-07-08T01:45:33;16.50;56.50
21676;DHT22;10999;51.332;9.458;2023-07-08T01:48:05;16.50;56.50
21676;DHT22;10999;51.332;9.458;2023-07-08T01:50:35;16.50;56.40
21676;DHT22;10999;51.332;9.458;2023-07-08T01:53:11;16.50;56.80
21676;DHT22;10999;51.332;9.458;2023-07-08T01:55:38;16.50;57.00
21676;DHT22;10999;51.332;9.458;2023-07-08T01:58:05;16.50;56.70
21676;DHT22;10999;51.332;9.458;2023-07-08T02:00:32;16.40;56.80
21676;DHT22;10999;51.332;9.458;2023-07-08T02:02:58;16.40;57.40
21676;DHT22;10999;51.332;9.458;2023-07-08T02:05:25;16.40;57.50
21676;DHT22;10999;51.332;9.458;2023-07-08T02:07:52;16.30;57.90
21676;DHT22;10999;51.332;9.458;2023-07-08T02:10:19;16.30;58.10
21676;DHT22;10999;51.332;9.458;2023-07-08T02:12:46;16.20;58.00
21676;DHT22;10999;51.332;9.458;2023-07-08T02:15:13;16.20;57.90
21676;DHT22;10999;51.332;9.458;2023-07-08T02:17:40;16.20;58.10
21676;DHT22;10999;51.332;9.458;2023-07-08T02:20:07;16.20;58.20
21676;DHT22;10999;51.332;9.458;2023-07-08T02:22:35;16.10;58.20
21676;DHT22;10999;51.332;9.458;2023-07-08T02:25:03;16.10;58.20
21676;DHT22;10999;51.332;9.458;2023-07-08T02:27:30;16.10;58.20
21676;DHT22;10999;51.332;9.458;2023-07-08T02:29:57;16.10;58.40
21676;DHT22;10999;51.332;9.458;2023-07-08T02:32:23;16.00;58.90
21676;DHT22;10999;51.332;9.458;2023-07-08T02:34:50;15.90;59.30
21676;DHT22;10999;51.332;9.458;2023-07-08T02:37:18;15.90;60.00
21676;DHT22;10999;51.332;9.458;2023-07-08T02:39:45;15.80;60.30
21676;DHT22;10999;51.332;9.458;2023-07-08T02:42:12;15.80;60.90
21676;DHT22;10999;51.332;9.458;2023-07-08T02:44:39;15.70;61.60
21676;DHT22;10999;51.332;9.458;2023-07-08T02:47:05;15.70;61.90
21676;DHT22;10999;51.332;9.458;2023-07-08T02:49:32;15.60;62.40
21676;DHT22;10999;51.332;9.458;2023-07-08T02:51:59;15.60;62.40
21676;DHT22;10999;51.332;9.458;2023-07-08T02:54:26;15.50;62.60
21676;DHT22;10999;51.332;9.458;2023-07-08T02:56:52;15.50;63.10
21676;DHT22;10999;51.332;9.458;2023-07-08T02:59:19;15.50;63.60
21676;DHT22;10999;51.332;9.458;2023-07-08T03:01:46;15.40;63.90
21676;DHT22;10999;51.332;9.458;2023-07-08T03:04:14;15.40;64.10
21676;DHT22;10999;51.332;9.458;2023-07-08T03:06:42;15.40;64.30
21676;DHT22;10999;51.332;9.458;2023-07-08T03:09:10;15.30;64.40
21676;DHT22;10999;51.332;9.458;2023-07-08T03:11:40;15.30;65.10
21676;DHT22;10999;51.332;9.458;2023-07-08T03:14:07;15.20;65.30
21676;DHT22;10999;51.332;9.458;2023-07-08T03:16:34;15.10;66.30
21676;DHT22;10999;51.332;9.458;2023-07-08T03:19:01;15.10;66.40
21676;DHT22;10999;51.332;9.458;2023-07-08T03:21:28;15.10;67.40
21676;DHT22;10999;51.332;9.458;2023-07-08T03:23:55;15.00;68.30
21676;DHT22;10999;51.332;9.458;2023-07-08T03:26:24;15.00;69.00
21676;DHT22;10999;51.332;9.458;2023-07-08T03:28:51;15.00;69.10
21676;DHT22;10999;51.332;9.458;2023-07-08T03:31:18;14.90;69.40
21676;DHT22;10999;51.332;9.458;2023-07-08T03:33:45;14.90;69.30
21676;DHT22;10999;51.332;9.458;2023-07-08T03:36:15;14.90;69.70
21676;DHT22;10999;51.332;9.458;2023-07-08T03:38:53;15.00;69.30
21676;DHT22;10999;51.332;9.458;2023-07-08T03:41:20;15.00;68.70
21676;DHT22;10999;51.332;9.458;2023-07-08T03:43:47;15.10;68.40
21676;DHT22;10999;51.332;9.458;2023-07-08T03:46:15;15.10;68.20
21676;DHT22;10999;51.332;9.458;2023-07-08T03:48:42;15.10;68.60
21676;DHT22;10999;51.332;9.458;2023-07-08T03:51:20;15.10;68.80
21676;DHT22;10999;51.332;9.458;2023-07-08T03:53:47;15.10;69.10
21676;DHT22;10999;51.332;9.458;2023-07-08T03:56:14;15.10;69.70
21676;DHT22;10999;51.332;9.458;2023-07-08T03:58:41;15.10;71.30
21676;DHT22;10999;51.332;9.458;2023-07-08T04:01:14;15.10;71.60
21676;DHT22;10999;51.332;9.458;2023-07-08T04:03:43;15.20;71.00
21676;DHT22;10999;51.332;9.458;2023-07-08T04:06:10;15.20;71.30
21676;DHT22;10999;51.332;9.458;2023-07-08T04:08:37;15.30;70.90
21676;DHT22;10999;51.332;9.458;2023-07-08T04:11:08;15.30;71.30
21676;DHT22;10999;51.332;9.458;2023-07-08T04:13:34;15.40;71.00
21676;DHT22;10999;51.332;9.458;2023-07-08T04:16:04;15.40;70.50
21676;DHT22;10999;51.332;9.458;2023-07-08T04:18:31;15.40;70.30
21676;DHT22;10999;51.332;9.458;2023-07-08T04:20:58;15.50;71.50
21676;DHT22;10999;51.332;9.458;2023-07-08T04:23:28;15.50;71.50
21676;DHT22;10999;51.332;9.458;2023-07-08T04:25:56;15.60;71.60
21676;DHT22;10999;51.332;9.458;2023-07-08T04:28:23;15.60;71.70
21676;DHT22;10999;51.332;9.458;2023-07-08T04:30:50;15.70;71.80
21676;DHT22;10999;51.332;9.458;2023-07-08T04:33:17;15.80;72.00
21676;DHT22;10999;51.332;9.458;2023-07-08T04:35:44;15.80;72.10
21676;DHT22;10999;51.332;9.458;2023-07-08T04:38:18;16.00;72.40
21676;DHT22;10999;51.332;9.458;2023-07-08T04:40:45;16.00;72.10
21676;DHT22;10999;51.332;9.458;2023-07-08T04:43:12;16.10;72.40
21676;DHT22;10999;51.332;9.458;2023-07-08T04:45:40;16.20;72.20
21676;DHT22;10999;51.332;9.458;2023-07-08T04:48:13;16.30;71.90
21676;DHT22;10999;51.332;9.458;2023-07-08T04:50:41;16.40;71.50
21676;DHT22;10999;51.332;9.458;2023-07-08T04:53:09;16.60;71.30
21676;DHT22;10999;51.332;9.458;2023-07-08T04:55:39;16.70;71.00
21676;DHT22;10999;51.332;9.458;2023-07-08T04:58:06;16.80;70.60
21676;DHT22;10999;51.332;9.458;2023-07-08T05:00:33;16.90;69.20
21676;DHT22;10999;51.332;9.458;2023-07-08T05:02:59;17.00;67.50
21676;DHT22;10999;51.332;9.458;2023-07-08T05:05:26;17.20;64.10
21676;DHT22;10999;51.332;9.458;2023-07-08T05:07:53;17.20;62.10
21676;DHT22;10999;51.332;9.458;2023-07-08T05:10:20;17.40;60.00
21676;DHT22;10999;51.332;9.458;2023-07-08T05:12:47;17.50;59.60
21676;DHT22;10999;51.332;9.458;2023-07-08T05:15:15;17.60;58.80
21676;DHT22;10999;51.332;9.458;2023-07-08T05:17:42;17.70;58.60
21676;DHT22;10999;51.332;9.458;2023-07-08T05:20:12;17.90;59.30
21676;DHT22;10999;51.332;9.458;2023-07-08T05:22:39;18.10;59.60
21676;DHT22;10999;51.332;9.458;2023-07-08T05:25:07;18.30;58.50
21676;DHT22;10999;51.332;9.458;2023-07-08T05:27:33;18.50;58.70
21676;DHT22;10999;51.332;9.458;2023-07-08T05:30:02;18.70;59.10
21676;DHT22;10999;51.332;9.458;2023-07-08T05:32:29;18.90;60.30
21676;DHT22;10999;51.332;9.458;2023-07-08T05:34:56;19.00;55.70
21676;DHT22;10999;51.332;9.458;2023-07-08T05:37:23;19.10;54.50
21676;DHT22;10999;51.332;9.458;2023-07-08T05:39:52;19.20;52.80
21676;DHT22;10999;51.332;9.458;2023-07-08T05:42:22;19.40;49.30
21676;DHT22;10999;51.332;9.458;2023-07-08T05:44:49;19.50;47.90
21676;DHT22;10999;51.332;9.458;2023-07-08T05:47:18;19.70;48.90
21676;DHT22;10999;51.332;9.458;2023-07-08T05:49:45;19.70;48.70
21676;DHT22;10999;51.332;9.458;2023-07-08T05:52:12;19.80;48.00
21676;DHT22;10999;51.332;9.458;2023-07-08T05:54:39;19.80;45.70
21676;DHT22;10999;51.332;9.458;2023-07-08T05:57:08;19.80;46.80
21676;DHT22;10999;51.332;9.458;2023-07-08T05:59:36;19.80;47.30
21676;DHT22;10999;51.332;9.458;2023-07-08T06:02:03;19.80;48.10
21676;DHT22;10999;51.332;9.458;2023-07-08T06:04:30;19.90;48.30
21676;DHT22;10999;51.332;9.458;2023-07-08T06:06:57;20.00;48.80
21676;DHT22;10999;51.332;9.458;2023-07-08T06:09:24;20.10;47.40
21676;DHT22;10999;51.332;9.458;2023-07-08T06:11:51;20.30;47.10
21676;DHT22;10999;51.332;9.458;2023-07-08T06:14:18;20.50;48.20
21676;DHT22;10999;51.332;9.458;2023-07-08T06:16:44;20.60;46.50
21676;DHT22;10999;51.332;9.458;2023-07-08T06:19:13;20.80;47.80
21676;DHT22;10999;51.332;9.458;2023-07-08T06:21:41;20.90;47.20
21676;DHT22;10999;51.332;9.458;2023-07-08T06:24:08;21.00;41.10
21676;DHT22;10999;51.332;9.458;2023-07-08T06:26:35;21.20;42.70
21676;DHT22;10999;51.332;9.458;2023-07-08T06:29:03;21.30;43.70
21676;DHT22;10999;51.332;9.458;2023-07-08T06:31:29;21.40;40.70
21676;DHT22;10999;51.332;9.458;2023-07-08T06:33:56;21.50;41.30
21676;DHT22;10999;51.332;9.458;2023-07-08T06:36:23;21.70;40.10
21676;DHT22;10999;51.332;9.458;2023-07-08T06:38:50;21.90;40.90
21676;DHT22;10999;51.332;9.458;2023-07-08T06:41:17;22.00;40.50
21676;DHT22;10999;51.332;9.458;2023-07-08T06:43:44;22.10;40.20
21676;DHT22;10999;51.332;9.458;2023-07-08T06:46:11;22.20;36.80
21676;DHT22;10999;51.332;9.458;2023-07-08T06:48:38;22.30;35.20
21676;DHT22;10999;51.332;9.458;2023-07-08T06:51:06;22.50;35.20
21676;DHT22;10999;51.332;9.458;2023-07-08T06:53:32;22.70;36.20
21676;DHT22;10999;51.332;9.458;2023-07-08T06:55:59;22.70;31.40
21676;DHT22;10999;51.332;9.458;2023-07-08T06:58:26;22.70;33.20
21676;DHT22;10999;51.332;9.458;2023-07-08T07:00:54;22.70;37.90
21676;DHT22;10999;51.332;9.458;2023-07-08T07:03:20;22.70;36.30
21676;DHT22;10999;51.332;9.458;2023-07-08T07:05:47;22.90;34.30
21676;DHT22;10999;51.332;9.458;2023-07-08T07:08:14;23.20;33.00
21676;DHT22;10999;51.332;9.458;2023-07-08T07:10:42;23.40;31.90
21676;DHT22;10999;51.332;9.458;2023-07-08T07:13:09;23.60;33.60
21676;DHT22;10999;51.332;9.458;2023-07-08T07:15:36;23.90;33.60
21676;DHT22;10999;51.332;9.458;2023-07-08T07:18:03;24.10;34.60
21676;DHT22;10999;51.332;9.458;2023-07-08T07:20:30;24.40;31.50
21676;DHT22;10999;51.332;9.458;2023-07-08T07:22:59;24.60;29.70
21676;DHT22;10999;51.332;9.458;2023-07-08T07:25:25;24.70;23.60
21676;DHT22;10999;51.332;9.458;2023-07-08T07:27:52;24.90;27.10
21676;DHT22;10999;51.332;9.458;2023-07-08T07:30:19;25.00;26.60
21676;DHT22;10999;51.332;9.458;2023-07-08T07:32:46;25.20;26.60
21676;DHT22;10999;51.332;9.458;2023-07-08T07:35:13;25.30;23.70
21676;DHT22;10999;51.332;9.458;2023-07-08T07:37:42;25.60;24.50
21676;DHT22;10999;51.332;9.458;2023-07-08T07:40:11;25.90;24.20
21676;DHT22;10999;51.332;9.458;2023-07-08T07:42:40;26.10;25.60
21676;DHT22;10999;51.332;9.458;2023-07-08T07:45:08;26.30;20.80
21676;DHT22;10999;51.332;9.458;2023-07-08T07:47:35;26.40;18.10
21676;DHT22;10999;51.332;9.458;2023-07-08T07:50:07;26.40;17.50
21676;DHT22;10999;51.332;9.458;2023-07-08T07:52:34;26.30;20.40
21676;DHT22;10999;51.332;9.458;2023-07-08T07:55:02;26.10;24.30
21676;DHT22;10999;51.332;9.458;2023-07-08T07:57:29;26.00;19.80
21676;DHT22;10999;51.332;9.458;2023-07-08T07:59:56;26.00;22.10
21676;DHT22;10999;51.332;9.458;2023-07-08T08:02:23;25.90;19.30
21676;DHT22;10999;51.332;9.458;2023-07-08T08:04:50;25.90;20.10
21676;DHT22;10999;51.332;9.458;2023-07-08T08:07:16;25.90;22.50
21676;DHT22;10999;51.332;9.458;2023-07-08T08:09:43;26.00;23.90
21676;DHT22;10999;51.332;9.458;2023-07-08T08:12:11;26.20;19.80
21676;DHT22;10999;51.332;9.458;2023-07-08T08:14:38;26.50;20.00
21676;DHT22;10999;51.332;9.458;2023-07-08T08:17:06;26.70;21.00
21676;DHT22;10999;51.332;9.458;2023-07-08T08:19:33;27.00;20.40
21676;DHT22;10999;51.332;9.458;2023-07-08T08:22:00;27.20;20.90
21676;DHT22;10999;51.332;9.458;2023-07-08T08:24:27;27.50;19.70
21676;DHT22;10999;51.332;9.458;2023-07-08T08:26:54;27.70;19.90
21676;DHT22;10999;51.332;9.458;2023-07-08T08:29:21;27.90;18.00
21676;DHT22;10999;51.332;9.458;2023-07-08T08:31:48;28.00;15.80
21676;DHT22;10999;51.332;9.458;2023-07-08T08:34:15;28.10;15.20
21676;DHT22;10999;51.332;9.458;2023-07-08T08:36:41;28.10;15.00
21676;DHT22;10999;51.332;9.458;2023-07-08T08:39:09;28.00;15.30
21676;DHT22;10999;51.332;9.458;2023-07-08T08:41:39;28.30;17.40
21676;DHT22;10999;51.332;9.458;2023-07-08T08:44:13;28.60;16.30
21676;DHT22;10999;51.332;9.458;2023-07-08T08:46:52;28.80;16.10
21676;DHT22;10999;51.332;9.458;2023-07-08T08:49:26;28.90;15.00
21676;DHT22;10999;51.332;9.458;2023-07-08T08:51:54;29.10;13.10
21676;DHT22;10999;51.332;9.458;2023-07-08T08:54:21;29.20;14.60
21676;DHT22;10999;51.332;9.458;2023-07-08T08:59:42;29.30;11.90
21676;DHT22;10999;51.332;9.458;2023-07-08T09:02:28;29.30;12.90
21676;DHT22;10999;51.332;9.458;2023-07-08T09:05:06;29.50;13.00
21676;DHT22;10999;51.332;9.458;2023-07-08T09:07:59;29.60;13.60
21676;DHT22;10999;51.332;9.458;2023-07-08T09:10:53;29.80;9.30
21676;DHT22;10999;51.332;9.458;2023-07-08T09:13:34;29.90;9.80
21676;DHT22;10999;51.332;9.458;2023-07-08T09:16:14;29.90;9.20
21676;DHT22;10999;51.332;9.458;2023-07-08T09:21:30;30.10;10.30
21676;DHT22;10999;51.332;9.458;2023-07-08T09:24:03;30.20;8.30
21676;DHT22;10999;51.332;9.458;2023-07-08T09:26:34;30.20;7.50
21676;DHT22;10999;51.332;9.458;2023-07-08T09:29:00;30.00;6.00
21676;DHT22;10999;51.332;9.458;2023-07-08T09:31:30;30.10;8.70
21676;DHT22;10999;51.332;9.458;2023-07-08T09:34:10;30.00;7.60
21676;DHT22;10999;51.332;9.458;2023-07-08T09:36:43;30.00;9.80
21676;DHT22;10999;51.332;9.458;2023-07-08T09:39:12;30.00;6.30
21676;DHT22;10999;51.332;9.458;2023-07-08T09:41:42;30.00;8.10
21676;DHT22;10999;51.332;9.458;2023-07-08T09:44:23;30.00;9.10
21676;DHT22;10999;51.332;9.458;2023-07-08T09:46:57;30.20;9.00
21676;DHT22;10999;51.332;9.458;2023-07-08T09:49:31;30.10;7.70
21676;DHT22;10999;51.332;9.458;2023-07-08T09:51:58;30.10;8.60
21676;DHT22;10999;51.332;9.458;2023-07-08T09:54:25;30.10;9.90
21676;DHT22;10999;51.332;9.458;2023-07-08T09:56:57;30.20;8.50
21676;DHT22;10999;51.332;9.458;2023-07-08T09:59:29;30.30;7.90
21676;DHT22;10999;51.332;9.458;2023-07-08T10:02:26;30.20;6.40
21676;DHT22;10999;51.332;9.458;2023-07-08T10:05:00;29.90;6.90
21676;DHT22;10999;51.332;9.458;2023-07-08T10:07:29;29.90;5.50
21676;DHT22;10999;51.332;9.458;2023-07-08T10:10:00;29.80;6.60
21676;DHT22;10999;51.332;9.458;2023-07-08T10:12:29;30.00;10.90
21676;DHT22;10999;51.332;9.458;2023-07-08T10:15:00;30.20;9.80
21676;DHT22;10999;51.332;9.458;2023-07-08T10:17:29;30.20;8.50
21676;DHT22;10999;51.332;9.458;2023-07-08T10:19:57;30.20;5.80
21676;DHT22;10999;51.332;9.458;2023-07-08T10:22:54;30.20;7.70
21676;DHT22;10999;51.332;9.458;2023-07-08T10:25:29;30.20;7.60
21676;DHT22;10999;51.332;9.458;2023-07-08T10:30:57;30.40;8.10
21676;DHT22;10999;51.332;9.458;2023-07-08T10:33:31;30.50;7.80
21676;DHT22;10999;51.332;9.458;2023-07-08T10:45:13;30.70;4.40
21676;DHT22;10999;51.332;9.458;2023-07-08T10:55:30;30.90;1.70
21676;DHT22;10999;51.332;9.458;2023-07-08T11:00:40;30.90;3.80
21676;DHT22;10999;51.332;9.458;2023-07-08T11:03:26;31.00;3.50
21676;DHT22;10999;51.332;9.458;2023-07-08T11:08:57;31.20;2.70
21676;DHT22;10999;51.332;9.458;2023-07-08T11:11:40;31.30;3.70
21676;DHT22;10999;51.332;9.458;2023-07-08T11:14:15;31.30;1.00
21676;DHT22;10999;51.332;9.458;2023-07-08T11:19:37;31.30;2.70
21676;DHT22;10999;51.332;9.458;2023-07-08T11:22:11;31.20;1.00
21676;DHT22;10999;51.332;9.458;2023-07-08T11:24:46;31.20;1.10
21676;DHT22;10999;51.332;9.458;2023-07-08T11:27:37;31.30;1.10
21676;DHT22;10999;51.332;9.458;2023-07-08T11:32:39;31.20;1.00
21676;DHT22;10999;51.332;9.458;2023-07-08T11:35:48;31.20;1.00
21676;DHT22;10999;51.332;9.458;2023-07-08T11:38:16;31.20;1.30
21676;DHT22;10999;51.332;9.458;2023-07-08T11:41:02;31.20;1.00
21676;DHT22;10999;51.332;9.458;2023-07-08T11:43:39;31.30;2.10
21676;DHT22;10999;51.332;9.458;2023-07-08T11:46:20;31.30;1.00
21676;DHT22;10999;51.332;9.458;2023-07-08T11:48:50;31.30;1.00
21676;DHT22;10999;51.332;9.458;2023-07-08T11:51:23;31.20;1.00
21676;DHT22;10999;51.332;9.458;2023-07-08T11:54:11;31.30;1.00
21676;DHT22;10999;51.332;9.458;2023-07-08T11:56:57;31.40;1.00
21676;DHT22;10999;51.332;9.458;2023-07-08T11:59:29;31.50;1.00
21676;DHT22;10999;51.332;9.458;2023-07-08T12:02:14;31.40;1.00
21676;DHT22;10999;51.332;9.458;2023-07-08T12:05:03;31.40;1.00
21676;DHT22;10999;51.332;9.458;2023-07-08T12:07:41;31.40;1.00
21676;DHT22;10999;51.332;9.458;2023-07-08T12:10:17;31.30;1.00
21676;DHT22;10999;51.332;9.458;2023-07-08T12:12:46;31.20;1.00
21676;DHT22;10999;51.332;9.458;2023-07-08T12:15:28;31.20;1.00
21676;DHT22;10999;51.332;9.458;2023-07-08T12:18:01;31.30;1.00
21676;DHT22;10999;51.332;9.458;2023-07-08T12:20:38;31.30;1.00
21676;DHT22;10999;51.332;9.458;2023-07-08T12:23:18;31.30;1.00
21676;DHT22;10999;51.332;9.458;2023-07-08T12:25:45;31.30;1.00
21676;DHT22;10999;51.332;9.458;2023-07-08T12:28:14;31.40;1.00
21676;DHT22;10999;51.332;9.458;2023-07-08T12:30:43;31.50;1.00
21676;DHT22;10999;51.332;9.458;2023-07-08T12:33:14;31.50;1.00
21676;DHT22;10999;51.332;9.458;2023-07-08T12:35:42;31.50;1.00
21676;DHT22;10999;51.332;9.458;2023-07-08T12:38:23;31.60;1.00
21676;DHT22;10999;51.332;9.458;2023-07-08T12:41:03;31.60;1.00
21676;DHT22;10999;51.332;9.458;2023-07-08T12:43:32;31.70;1.10
21676;DHT22;10999;51.332;9.458;2023-07-08T12:45:59;31.80;1.00
21676;DHT22;10999;51.332;9.458;2023-07-08T12:48:32;31.80;1.10
21676;DHT22;10999;51.332;9.458;2023-07-08T12:50:59;31.90;1.00
21676;DHT22;10999;51.332;9.458;2023-07-08T12:53:26;31.90;1.00
21676;DHT22;10999;51.332;9.458;2023-07-08T12:55:56;31.90;1.00
21676;DHT22;10999;51.332;9.458;2023-07-08T12:58:26;32.00;1.00
21676;DHT22;10999;51.332;9.458;2023-07-08T13:00:59;32.10;1.00
21676;DHT22;10999;51.332;9.458;2023-07-08T13:03:40;32.00;1.00
21676;DHT22;10999;51.332;9.458;2023-07-08T13:06:09;32.00;1.00
21676;DHT22;10999;51.332;9.458;2023-07-08T13:08:38;32.10;1.80
21676;DHT22;10999;51.332;9.458;2023-07-08T13:11:06;32.20;1.00
21676;DHT22;10999;51.332;9.458;2023-07-08T13:13:36;32.00;1.00
21676;DHT22;10999;51.332;9.458;2023-07-08T13:16:04;32.00;1.00
21676;DHT22;10999;51.332;9.458;2023-07-08T13:18:37;32.00;1.00
21676;DHT22;10999;51.332;9.458;2023-07-08T13:21:06;32.00;1.00
21676;DHT22;10999;51.332;9.458;2023-07-08T13:23:35;32.00;1.00
21676;DHT22;10999;51.332;9.458;2023-07-08T13:26:19;31.90;1.00
21676;DHT22;10999;51.332;9.458;2023-07-08T13:28:48;32.00;1.80
21676;DHT22;10999;51.332;9.458;2023-07-08T13:31:19;32.20;1.00
21676;DHT22;10999;51.332;9.458;2023-07-08T13:33:55;32.30;1.00
21676;DHT22;10999;51.332;9.458;2023-07-08T13:36:36;32.50;1.00
21676;DHT22;10999;51.332;9.458;2023-07-08T13:39:08;32.50;1.00
21676;DHT22;10999;51.332;9.458;2023-07-08T13:41:36;32.50;1.00
21676;DHT22;10999;51.332;9.458;2023-07-08T13:44:07;32.60;1.70
21676;DHT22;10999;51.332;9.458;2023-07-08T13:49:19;32.60;1.00
21676;DHT22;10999;51.332;9.458;2023-07-08T13:51:48;32.70;1.00
21676;DHT22;10999;51.332;9.458;2023-07-08T13:54:25;32.70;1.00
21676;DHT22;10999;51.332;9.458;2023-07-08T13:56:53;32.70;1.00
21676;DHT22;10999;51.332;9.458;2023-07-08T13:59:24;32.70;1.00
21676;DHT22;10999;51.332;9.458;2023-07-08T14:01:53;32.40;1.00
21676;DHT22;10999;51.332;9.458;2023-07-08T14:04:32;32.30;1.00
21676;DHT22;10999;51.332;9.458;2023-07-08T14:06:59;32.30;1.00
21676;DHT22;10999;51.332;9.458;2023-07-08T14:09:26;32.30;1.00
21676;DHT22;10999;51.332;9.458;2023-07-08T14:11:54;32.40;1.00
21676;DHT22;10999;51.332;9.458;2023-07-08T14:14:21;32.40;1.00
21676;DHT22;10999;51.332;9.458;2023-07-08T14:16:49;32.60;1.00
21676;DHT22;10999;51.332;9.458;2023-07-08T14:19:26;32.60;1.00
21676;DHT22;10999;51.332;9.458;2023-07-08T14:21:56;32.60;1.00
21676;DHT22;10999;51.332;9.458;2023-07-08T14:24:24;32.30;1.00
21676;DHT22;10999;51.332;9.458;2023-07-08T14:26:52;32.20;1.00
21676;DHT22;10999;51.332;9.458;2023-07-08T14:29:19;32.00;1.00
21676;DHT22;10999;51.332;9.458;2023-07-08T14:31:47;32.10;2.10
21676;DHT22;10999;51.332;9.458;2023-07-08T14:34:25;32.10;1.00
21676;DHT22;10999;51.332;9.458;2023-07-08T14:36:53;32.10;1.00
21676;DHT22;10999;51.332;9.458;2023-07-08T14:39:20;32.00;1.00
21676;DHT22;10999;51.332;9.458;2023-07-08T14:41:49;32.00;1.00
21676;DHT22;10999;51.332;9.458;2023-07-08T14:44:21;32.10;2.70
21676;DHT22;10999;51.332;9.458;2023-07-08T14:46:48;32.30;1.00
21676;DHT22;10999;51.332;9.458;2023-07-08T14:49:21;32.30;1.00
21676;DHT22;10999;51.332;9.458;2023-07-08T14:51:51;32.40;1.00
21676;DHT22;10999;51.332;9.458;2023-07-08T14:54:19;32.40;1.00
21676;DHT22;10999;51.332;9.458;2023-07-08T14:56:46;32.40;1.00
21676;DHT22;10999;51.332;9.458;2023-07-08T14:59:20;32.40;1.00
21676;DHT22;10999;51.332;9.458;2023-07-08T15:01:48;32.40;1.00
21676;DHT22;10999;51.332;9.458;2023-07-08T15:04:17;32.30;1.00
21676;DHT22;10999;51.332;9.458;2023-07-08T15:06:45;32.40;1.00
21676;DHT22;10999;51.332;9.458;2023-07-08T15:09:13;32.50;1.00
21676;DHT22;10999;51.332;9.458;2023-07-08T15:11:41;32.70;1.00
21676;DHT22;10999;51.332;9.458;2023-07-08T15:14:22;32.60;1.00
21676;DHT22;10999;51.332;9.458;2023-07-08T15:16:50;32.60;1.00
21676;DHT22;10999;51.332;9.458;2023-07-08T15:19:19;32.90;1.00
21676;DHT22;10999;51.332;9.458;2023-07-08T15:21:46;32.90;1.00
21676;DHT22;10999;51.332;9.458;2023-07-08T15:24:14;32.80;1.00
21676;DHT22;10999;51.332;9.458;2023-07-08T15:26:43;32.70;1.00
21676;DHT22;10999;51.332;9.458;2023-07-08T15:29:19;32.70;1.00
21676;DHT22;10999;51.332;9.458;2023-07-08T15:31:46;32.60;1.00
21676;DHT22;10999;51.332;9.458;2023-07-08T15:34:18;32.60;1.00
21676;DHT22;10999;51.332;9.458;2023-07-08T15:36:46;32.70;1.00
21676;DHT22;10999;51.332;9.458;2023-07-08T15:39:13;32.70;1.00
21676;DHT22;10999;51.332;9.458;2023-07-08T15:41:40;32.60;1.00
21676;DHT22;10999;51.332;9.458;2023-07-08T15:44:12;32.40;1.00
21676;DHT22;10999;51.332;9.458;2023-07-08T15:46:42;32.40;1.00
21676;DHT22;10999;51.332;9.458;2023-07-08T15:49:17;32.40;1.00
21676;DHT22;10999;51.332;9.458;2023-07-08T15:51:44;32.50;1.00
21676;DHT22;10999;51.332;9.458;2023-07-08T15:54:16;32.50;1.00
21676;DHT22;10999;51.332;9.458;2023-07-08T15:56:43;32.60;1.00
21676;DHT22;10999;51.332;9.458;2023-07-08T15:59:16;32.40;1.00
21676;DHT22;10999;51.332;9.458;2023-07-08T16:01:44;32.20;1.00
21676;DHT22;10999;51.332;9.458;2023-07-08T16:04:31;32.00;1.00
21676;DHT22;10999;51.332;9.458;2023-07-08T16:06:58;31.90;1.00
21676;DHT22;10999;51.332;9.458;2023-07-08T16:09:25;31.70;1.00
21676;DHT22;10999;51.332;9.458;2023-07-08T16:11:52;31.60;1.00
21676;DHT22;10999;51.332;9.458;2023-07-08T16:14:19;31.80;2.40
21676;DHT22;10999;51.332;9.458;2023-07-08T16:16:46;32.00;2.80
21676;DHT22;10999;51.332;9.458;2023-07-08T16:19:14;32.00;1.00
21676;DHT22;10999;51.332;9.458;2023-07-08T16:21:41;32.20;1.00
21676;DHT22;10999;51.332;9.458;2023-07-08T16:24:08;32.20;1.70
21676;DHT22;10999;51.332;9.458;2023-07-08T16:26:36;32.30;1.00
21676;DHT22;10999;51.332;9.458;2023-07-08T16:29:04;32.30;2.60
21676;DHT22;10999;51.332;9.458;2023-07-08T16:31:32;32.30;2.40
21676;DHT22;10999;51.332;9.458;2023-07-08T16:33:59;32.30;2.10
21676;DHT22;10999;51.332;9.458;2023-07-08T16:36:27;32.30;2.30
21676;DHT22;10999;51.332;9.458;2023-07-08T16:38:55;32.20;2.10
21676;DHT22;10999;51.332;9.458;2023-07-08T16:41:24;32.20;2.70